Spalding, Michigan
Current Conditions -  °F | °C
As of 12:55 PM on Sunday 23 Nov 2014 (Local Time) from KESC Reporting Station
Overcast Overcast  
Wind Chill: 38°   Ceiling: 200
Heat Index: 43°   Visibility: 0.5mi
Dew Point: 39°   Wind: 8mph
Humidity: 87%   Direction: 200°SSW
Pressure: 29.53"   Gusts: NA
Location:  45.7°N, 87.51°W
Report Text: KESC 231855Z AUTO 20007KT 1/2SM OVC002 06/04 A2953 RMK AO1
Loading
Personal Weather Stations






























Interactive Weather Map New forecast layout! Learn more

10-Day Weather Forecast

Advertisements
Track Severe Weather on mobile